sensor_id;sensor_type;location;lat;lon;timestamp;temperature;humidity
39483;DHT22;25682;48.438;1.482;2023-05-14T00:00:41;21.40;62.30
39483;DHT22;25682;48.438;1.482;2023-05-14T00:03:07;21.40;62.20
39483;DHT22;25682;48.438;1.482;2023-05-14T00:05:32;21.40;62.20
39483;DHT22;25682;48.438;1.482;2023-05-14T00:07:58;21.40;62.20
39483;DHT22;25682;48.438;1.482;2023-05-14T00:10:23;21.50;62.20
39483;DHT22;25682;48.438;1.482;2023-05-14T00:12:50;21.40;62.20
39483;DHT22;25682;48.438;1.482;2023-05-14T00:15:15;21.40;62.10
39483;DHT22;25682;48.438;1.482;2023-05-14T00:17:41;21.40;62.10
39483;DHT22;25682;48.438;1.482;2023-05-14T00:20:06;21.40;62.70
39483;DHT22;25682;48.438;1.482;2023-05-14T00:22:32;21.40;62.10
39483;DHT22;25682;48.438;1.482;2023-05-14T00:24:58;21.40;62.00
39483;DHT22;25682;48.438;1.482;2023-05-14T00:27:23;21.40;62.00
39483;DHT22;25682;48.438;1.482;2023-05-14T00:29:49;21.40;62.00
39483;DHT22;25682;48.438;1.482;2023-05-14T00:32:14;21.40;62.00
39483;DHT22;25682;48.438;1.482;2023-05-14T00:34:40;21.40;61.90
39483;DHT22;25682;48.438;1.482;2023-05-14T00:37:05;21.40;61.90
39483;DHT22;25682;48.438;1.482;2023-05-14T00:39:31;21.40;61.90
39483;DHT22;25682;48.438;1.482;2023-05-14T00:41:56;21.40;61.80
39483;DHT22;25682;48.438;1.482;2023-05-14T00:44:22;21.40;61.80
39483;DHT22;25682;48.438;1.482;2023-05-14T00:46:47;21.40;61.80
39483;DHT22;25682;48.438;1.482;2023-05-14T00:49:13;21.40;61.70
39483;DHT22;25682;48.438;1.482;2023-05-14T00:51:39;21.40;61.70
39483;DHT22;25682;48.438;1.482;2023-05-14T00:54:05;21.40;61.70
39483;DHT22;25682;48.438;1.482;2023-05-14T00:56:31;21.40;61.70
39483;DHT22;25682;48.438;1.482;2023-05-14T00:58:58;21.40;61.70
39483;DHT22;25682;48.438;1.482;2023-05-14T01:01:23;21.40;61.60
39483;DHT22;25682;48.438;1.482;2023-05-14T01:03:49;21.40;61.60
39483;DHT22;25682;48.438;1.482;2023-05-14T01:06:22;21.40;61.60
39483;DHT22;25682;48.438;1.482;2023-05-14T01:11:23;21.40;61.60
39483;DHT22;25682;48.438;1.482;2023-05-14T01:14:00;21.40;61.50
39483;DHT22;25682;48.438;1.482;2023-05-14T01:16:27;21.40;61.50
39483;DHT22;25682;48.438;1.482;2023-05-14T01:18:53;21.40;61.50
39483;DHT22;25682;48.438;1.482;2023-05-14T01:21:32;21.40;61.40
39483;DHT22;25682;48.438;1.482;2023-05-14T01:23:59;21.40;61.40
39483;DHT22;25682;48.438;1.482;2023-05-14T01:26:24;21.40;61.40
39483;DHT22;25682;48.438;1.482;2023-05-14T01:28:50;21.40;61.40
39483;DHT22;25682;48.438;1.482;2023-05-14T01:31:17;21.40;61.30
39483;DHT22;25682;48.438;1.482;2023-05-14T01:33:43;21.40;61.30
39483;DHT22;25682;48.438;1.482;2023-05-14T01:36:11;21.30;61.20
39483;DHT22;25682;48.438;1.482;2023-05-14T01:38:37;21.40;61.30
39483;DHT22;25682;48.438;1.482;2023-05-14T01:41:03;21.40;61.30
39483;DHT22;25682;48.438;1.482;2023-05-14T01:43:28;21.30;61.20
39483;DHT22;25682;48.438;1.482;2023-05-14T01:45:54;21.30;61.20
39483;DHT22;25682;48.438;1.482;2023-05-14T01:48:20;21.30;61.10
39483;DHT22;25682;48.438;1.482;2023-05-14T01:50:45;21.30;61.20
39483;DHT22;25682;48.438;1.482;2023-05-14T01:53:11;21.30;61.20
39483;DHT22;25682;48.438;1.482;2023-05-14T01:55:36;21.30;61.10
39483;DHT22;25682;48.438;1.482;2023-05-14T01:58:02;21.30;61.20
39483;DHT22;25682;48.438;1.482;2023-05-14T02:00:27;21.30;61.10
39483;DHT22;25682;48.438;1.482;2023-05-14T02:02:53;21.30;61.10
39483;DHT22;25682;48.438;1.482;2023-05-14T02:05:18;21.30;61.10
39483;DHT22;25682;48.438;1.482;2023-05-14T02:07:44;21.30;61.10
39483;DHT22;25682;48.438;1.482;2023-05-14T02:10:10;21.30;61.00
39483;DHT22;25682;48.438;1.482;2023-05-14T02:12:35;21.30;61.10
39483;DHT22;25682;48.438;1.482;2023-05-14T02:15:01;21.30;61.10
39483;DHT22;25682;48.438;1.482;2023-05-14T02:17:27;21.20;61.00
39483;DHT22;25682;48.438;1.482;2023-05-14T02:19:52;21.30;61.10
39483;DHT22;25682;48.438;1.482;2023-05-14T02:22:18;21.20;60.90
39483;DHT22;25682;48.438;1.482;2023-05-14T02:24:43;21.20;60.90
39483;DHT22;25682;48.438;1.482;2023-05-14T02:27:09;21.30;60.90
39483;DHT22;25682;48.438;1.482;2023-05-14T02:29:36;21.20;60.80
39483;DHT22;25682;48.438;1.482;2023-05-14T02:32:02;21.20;60.80
39483;DHT22;25682;48.438;1.482;2023-05-14T02:34:28;21.20;60.80
39483;DHT22;25682;48.438;1.482;2023-05-14T02:36:53;21.20;60.90
39483;DHT22;25682;48.438;1.482;2023-05-14T02:39:19;21.20;60.80
39483;DHT22;25682;48.438;1.482;2023-05-14T02:41:44;21.20;60.80
39483;DHT22;25682;48.438;1.482;2023-05-14T02:44:10;21.20;60.80
39483;DHT22;25682;48.438;1.482;2023-05-14T02:46:35;21.20;60.80
39483;DHT22;25682;48.438;1.482;2023-05-14T02:49:01;21.20;60.80
39483;DHT22;25682;48.438;1.482;2023-05-14T02:51:27;21.20;60.80
39483;DHT22;25682;48.438;1.482;2023-05-14T02:53:52;21.20;60.70
39483;DHT22;25682;48.438;1.482;2023-05-14T02:56:18;21.10;60.70
39483;DHT22;25682;48.438;1.482;2023-05-14T02:58:43;21.10;60.70
39483;DHT22;25682;48.438;1.482;2023-05-14T03:01:09;21.10;60.70
39483;DHT22;25682;48.438;1.482;2023-05-14T03:03:35;21.20;60.70
39483;DHT22;25682;48.438;1.482;2023-05-14T03:06:00;21.10;61.20
39483;DHT22;25682;48.438;1.482;2023-05-14T03:08:26;21.10;60.60
39483;DHT22;25682;48.438;1.482;2023-05-14T03:10:51;21.10;60.60
39483;DHT22;25682;48.438;1.482;2023-05-14T03:13:17;21.10;60.60
39483;DHT22;25682;48.438;1.482;2023-05-14T03:15:45;21.10;60.60
39483;DHT22;25682;48.438;1.482;2023-05-14T03:18:11;21.10;60.50
39483;DHT22;25682;48.438;1.482;2023-05-14T03:20:37;21.10;60.50
39483;DHT22;25682;48.438;1.482;2023-05-14T03:23:02;21.10;60.50
39483;DHT22;25682;48.438;1.482;2023-05-14T03:25:28;21.10;60.40
39483;DHT22;25682;48.438;1.482;2023-05-14T03:27:53;21.10;60.40
39483;DHT22;25682;48.438;1.482;2023-05-14T03:30:19;21.10;60.40
39483;DHT22;25682;48.438;1.482;2023-05-14T03:32:44;21.10;60.30
39483;DHT22;25682;48.438;1.482;2023-05-14T03:35:10;21.00;60.30
39483;DHT22;25682;48.438;1.482;2023-05-14T03:37:35;21.00;60.30
39483;DHT22;25682;48.438;1.482;2023-05-14T03:40:01;21.00;60.30
39483;DHT22;25682;48.438;1.482;2023-05-14T03:42:26;21.00;60.20
39483;DHT22;25682;48.438;1.482;2023-05-14T03:44:52;21.00;60.30
39483;DHT22;25682;48.438;1.482;2023-05-14T03:47:17;21.00;60.30
39483;DHT22;25682;48.438;1.482;2023-05-14T03:49:43;21.00;60.30
39483;DHT22;25682;48.438;1.482;2023-05-14T03:52:08;21.00;60.20
39483;DHT22;25682;48.438;1.482;2023-05-14T03:54:34;21.00;60.20
39483;DHT22;25682;48.438;1.482;2023-05-14T03:57:00;21.00;60.20
39483;DHT22;25682;48.438;1.482;2023-05-14T03:59:26;21.00;60.20
39483;DHT22;25682;48.438;1.482;2023-05-14T04:01:51;21.00;60.10
39483;DHT22;25682;48.438;1.482;2023-05-14T04:04:17;21.00;60.10
39483;DHT22;25682;48.438;1.482;2023-05-14T04:06:42;21.00;60.10
39483;DHT22;25682;48.438;1.482;2023-05-14T04:09:08;21.00;60.00
39483;DHT22;25682;48.438;1.482;2023-05-14T04:11:35;21.00;60.00
39483;DHT22;25682;48.438;1.482;2023-05-14T04:14:00;21.00;60.00
39483;DHT22;25682;48.438;1.482;2023-05-14T04:16:26;21.00;60.10
39483;DHT22;25682;48.438;1.482;2023-05-14T04:18:51;21.00;60.10
39483;DHT22;25682;48.438;1.482;2023-05-14T04:21:17;21.00;60.00
39483;DHT22;25682;48.438;1.482;2023-05-14T04:23:42;21.00;60.00
39483;DHT22;25682;48.438;1.482;2023-05-14T04:26:08;21.00;60.00
39483;DHT22;25682;48.438;1.482;2023-05-14T04:28:33;20.90;59.90
39483;DHT22;25682;48.438;1.482;2023-05-14T04:30:59;21.00;60.00
39483;DHT22;25682;48.438;1.482;2023-05-14T04:33:25;20.90;60.00
39483;DHT22;25682;48.438;1.482;2023-05-14T04:35:51;20.90;59.90
39483;DHT22;25682;48.438;1.482;2023-05-14T04:38:17;20.90;59.90
39483;DHT22;25682;48.438;1.482;2023-05-14T04:40:42;20.90;59.90
39483;DHT22;25682;48.438;1.482;2023-05-14T04:43:08;20.90;59.90
39483;DHT22;25682;48.438;1.482;2023-05-14T04:45:33;20.90;59.90
39483;DHT22;25682;48.438;1.482;2023-05-14T04:47:59;20.90;59.90
39483;DHT22;25682;48.438;1.482;2023-05-14T04:50:25;20.90;59.90
39483;DHT22;25682;48.438;1.482;2023-05-14T04:52:50;20.90;59.80
39483;DHT22;25682;48.438;1.482;2023-05-14T04:55:16;20.90;59.80
39483;DHT22;25682;48.438;1.482;2023-05-14T04:57:41;20.90;59.90
39483;DHT22;25682;48.438;1.482;2023-05-14T05:00:07;20.90;59.90
39483;DHT22;25682;48.438;1.482;2023-05-14T05:02:34;20.90;59.90
39483;DHT22;25682;48.438;1.482;2023-05-14T05:04:59;20.90;59.80
39483;DHT22;25682;48.438;1.482;2023-05-14T05:07:25;20.90;59.80
39483;DHT22;25682;48.438;1.482;2023-05-14T05:09:50;20.90;59.80
39483;DHT22;25682;48.438;1.482;2023-05-14T05:12:16;20.90;59.70
39483;DHT22;25682;48.438;1.482;2023-05-14T05:14:41;20.90;59.70
39483;DHT22;25682;48.438;1.482;2023-05-14T05:17:07;20.90;59.60
39483;DHT22;25682;48.438;1.482;2023-05-14T05:19:32;20.90;59.60
39483;DHT22;25682;48.438;1.482;2023-05-14T05:21:58;20.90;59.60
39483;DHT22;25682;48.438;1.482;2023-05-14T05:24:23;20.80;59.60
39483;DHT22;25682;48.438;1.482;2023-05-14T05:26:49;20.80;59.60
39483;DHT22;25682;48.438;1.482;2023-05-14T05:29:16;20.90;59.70
39483;DHT22;25682;48.438;1.482;2023-05-14T05:31:41;20.80;59.60
39483;DHT22;25682;48.438;1.482;2023-05-14T05:34:07;20.90;59.60
39483;DHT22;25682;48.438;1.482;2023-05-14T05:36:32;20.80;59.60
39483;DHT22;25682;48.438;1.482;2023-05-14T05:38:58;20.80;59.50
39483;DHT22;25682;48.438;1.482;2023-05-14T05:41:24;20.90;59.60
39483;DHT22;25682;48.438;1.482;2023-05-14T05:43:49;20.90;59.50
39483;DHT22;25682;48.438;1.482;2023-05-14T05:46:14;20.90;59.50
39483;DHT22;25682;48.438;1.482;2023-05-14T05:48:40;20.90;59.50
39483;DHT22;25682;48.438;1.482;2023-05-14T05:51:05;20.90;59.40
39483;DHT22;25682;48.438;1.482;2023-05-14T05:53:31;20.90;59.40
39483;DHT22;25682;48.438;1.482;2023-05-14T05:55:57;20.90;59.40
39483;DHT22;25682;48.438;1.482;2023-05-14T05:58:22;20.90;59.40
39483;DHT22;25682;48.438;1.482;2023-05-14T06:00:47;20.90;59.40
39483;DHT22;25682;48.438;1.482;2023-05-14T06:03:13;20.90;59.40
39483;DHT22;25682;48.438;1.482;2023-05-14T06:05:38;20.90;59.40
39483;DHT22;25682;48.438;1.482;2023-05-14T06:08:04;20.90;59.40
39483;DHT22;25682;48.438;1.482;2023-05-14T06:10:30;20.90;59.40
39483;DHT22;25682;48.438;1.482;2023-05-14T06:12:55;20.80;59.40
39483;DHT22;25682;48.438;1.482;2023-05-14T06:15:21;20.90;59.40
39483;DHT22;25682;48.438;1.482;2023-05-14T06:17:46;20.80;59.30
39483;DHT22;25682;48.438;1.482;2023-05-14T06:20:12;20.80;59.30
39483;DHT22;25682;48.438;1.482;2023-05-14T06:22:37;20.70;59.30
39483;DHT22;25682;48.438;1.482;2023-05-14T06:25:03;20.70;59.30
39483;DHT22;25682;48.438;1.482;2023-05-14T06:27:29;20.70;59.20
39483;DHT22;25682;48.438;1.482;2023-05-14T06:29:54;20.70;59.10
39483;DHT22;25682;48.438;1.482;2023-05-14T06:32:20;20.80;59.10
39483;DHT22;25682;48.438;1.482;2023-05-14T06:34:45;20.80;59.00
39483;DHT22;25682;48.438;1.482;2023-05-14T06:37:11;20.80;58.90
39483;DHT22;25682;48.438;1.482;2023-05-14T06:39:39;20.90;58.90
39483;DHT22;25682;48.438;1.482;2023-05-14T06:42:04;20.90;58.90
39483;DHT22;25682;48.438;1.482;2023-05-14T06:44:30;20.90;58.90
39483;DHT22;25682;48.438;1.482;2023-05-14T06:46:56;20.90;59.00
39483;DHT22;25682;48.438;1.482;2023-05-14T06:49:22;20.90;59.00
39483;DHT22;25682;48.438;1.482;2023-05-14T06:51:47;20.90;59.00
39483;DHT22;25682;48.438;1.482;2023-05-14T06:54:13;20.90;59.10
39483;DHT22;25682;48.438;1.482;2023-05-14T06:56:38;20.80;59.00
39483;DHT22;25682;48.438;1.482;2023-05-14T06:59:04;20.80;59.20
39483;DHT22;25682;48.438;1.482;2023-05-14T07:01:29;20.80;59.30
39483;DHT22;25682;48.438;1.482;2023-05-14T07:03:55;20.80;59.30
39483;DHT22;25682;48.438;1.482;2023-05-14T07:06:21;20.80;59.20
39483;DHT22;25682;48.438;1.482;2023-05-14T07:08:46;20.80;59.20
39483;DHT22;25682;48.438;1.482;2023-05-14T07:11:12;20.80;59.20
39483;DHT22;25682;48.438;1.482;2023-05-14T07:13:38;20.80;59.30
39483;DHT22;25682;48.438;1.482;2023-05-14T07:16:03;20.80;59.30
39483;DHT22;25682;48.438;1.482;2023-05-14T07:18:29;20.80;59.30
39483;DHT22;25682;48.438;1.482;2023-05-14T07:20:55;20.80;59.30
39483;DHT22;25682;48.438;1.482;2023-05-14T07:23:20;20.80;59.40
39483;DHT22;25682;48.438;1.482;2023-05-14T07:25:46;20.90;59.40
39483;DHT22;25682;48.438;1.482;2023-05-14T07:28:11;20.90;59.40
39483;DHT22;25682;48.438;1.482;2023-05-14T07:30:37;20.90;59.40
39483;DHT22;25682;48.438;1.482;2023-05-14T07:33:02;20.90;59.60
39483;DHT22;25682;48.438;1.482;2023-05-14T07:35:28;20.90;59.60
39483;DHT22;25682;48.438;1.482;2023-05-14T07:37:53;20.90;59.70
39483;DHT22;25682;48.438;1.482;2023-05-14T07:40:19;20.90;59.80
39483;DHT22;25682;48.438;1.482;2023-05-14T07:42:44;20.90;60.00
39483;DHT22;25682;48.438;1.482;2023-05-14T07:45:10;21.00;60.10
39483;DHT22;25682;48.438;1.482;2023-05-14T07:47:36;21.00;60.00
39483;DHT22;25682;48.438;1.482;2023-05-14T07:50:01;21.00;60.10
39483;DHT22;25682;48.438;1.482;2023-05-14T07:52:27;21.00;60.20
39483;DHT22;25682;48.438;1.482;2023-05-14T07:54:53;21.00;60.20
39483;DHT22;25682;48.438;1.482;2023-05-14T07:57:19;21.00;60.40
39483;DHT22;25682;48.438;1.482;2023-05-14T07:59:45;21.00;60.50
39483;DHT22;25682;48.438;1.482;2023-05-14T08:02:10;21.00;60.60
39483;DHT22;25682;48.438;1.482;2023-05-14T08:04:37;21.00;60.70
39483;DHT22;25682;48.438;1.482;2023-05-14T08:07:03;21.00;60.70
39483;DHT22;25682;48.438;1.482;2023-05-14T08:09:28;21.00;60.80
39483;DHT22;25682;48.438;1.482;2023-05-14T08:11:54;21.00;60.70
39483;DHT22;25682;48.438;1.482;2023-05-14T08:14:20;20.90;60.70
39483;DHT22;25682;48.438;1.482;2023-05-14T08:16:45;20.90;60.70
39483;DHT22;25682;48.438;1.482;2023-05-14T08:19:12;20.90;60.70
39483;DHT22;25682;48.438;1.482;2023-05-14T08:21:37;20.90;60.60
39483;DHT22;25682;48.438;1.482;2023-05-14T08:24:03;20.90;60.60
39483;DHT22;25682;48.438;1.482;2023-05-14T08:26:28;20.90;60.50
39483;DHT22;25682;48.438;1.482;2023-05-14T08:28:54;20.90;60.50
39483;DHT22;25682;48.438;1.482;2023-05-14T08:31:19;20.90;60.50
39483;DHT22;25682;48.438;1.482;2023-05-14T08:33:45;20.90;60.40
39483;DHT22;25682;48.438;1.482;2023-05-14T08:36:10;20.90;60.30
39483;DHT22;25682;48.438;1.482;2023-05-14T08:38:36;20.90;60.30
39483;DHT22;25682;48.438;1.482;2023-05-14T08:41:01;20.90;60.20
39483;DHT22;25682;48.438;1.482;2023-05-14T08:43:30;20.90;60.20
39483;DHT22;25682;48.438;1.482;2023-05-14T08:45:59;20.90;60.10
39483;DHT22;25682;48.438;1.482;2023-05-14T08:48:25;20.90;60.10
39483;DHT22;25682;48.438;1.482;2023-05-14T08:50:53;20.90;60.00
39483;DHT22;25682;48.438;1.482;2023-05-14T08:53:18;20.90;60.00
39483;DHT22;25682;48.438;1.482;2023-05-14T08:55:44;20.90;59.90
39483;DHT22;25682;48.438;1.482;2023-05-14T08:58:10;20.90;59.80
39483;DHT22;25682;48.438;1.482;2023-05-14T09:00:35;20.90;59.80
39483;DHT22;25682;48.438;1.482;2023-05-14T09:03:01;20.90;59.70
39483;DHT22;25682;48.438;1.482;2023-05-14T09:05:28;20.90;59.60
39483;DHT22;25682;48.438;1.482;2023-05-14T09:07:53;20.90;59.60
39483;DHT22;25682;48.438;1.482;2023-05-14T09:10:19;20.90;59.50
39483;DHT22;25682;48.438;1.482;2023-05-14T09:12:45;20.90;59.50
39483;DHT22;25682;48.438;1.482;2023-05-14T09:15:11;20.90;59.40
39483;DHT22;25682;48.438;1.482;2023-05-14T09:17:37;20.90;59.40
39483;DHT22;25682;48.438;1.482;2023-05-14T09:20:02;20.90;59.30
39483;DHT22;25682;48.438;1.482;2023-05-14T09:22:28;20.90;59.30
39483;DHT22;25682;48.438;1.482;2023-05-14T09:25:00;20.90;59.20
39483;DHT22;25682;48.438;1.482;2023-05-14T09:27:28;20.90;59.20
39483;DHT22;25682;48.438;1.482;2023-05-14T09:29:53;20.90;59.10
39483;DHT22;25682;48.438;1.482;2023-05-14T09:32:19;20.90;59.10
39483;DHT22;25682;48.438;1.482;2023-05-14T09:34:44;20.90;59.10
39483;DHT22;25682;48.438;1.482;2023-05-14T09:37:10;20.90;59.00
39483;DHT22;25682;48.438;1.482;2023-05-14T09:39:36;20.90;58.90
39483;DHT22;25682;48.438;1.482;2023-05-14T09:42:01;20.90;58.80
39483;DHT22;25682;48.438;1.482;2023-05-14T09:44:27;20.90;58.80
39483;DHT22;25682;48.438;1.482;2023-05-14T09:46:53;20.90;59.40
39483;DHT22;25682;48.438;1.482;2023-05-14T09:49:19;20.90;58.70
39483;DHT22;25682;48.438;1.482;2023-05-14T09:51:44;20.90;58.60
39483;DHT22;25682;48.438;1.482;2023-05-14T09:54:10;20.90;58.60
39483;DHT22;25682;48.438;1.482;2023-05-14T09:56:36;20.90;58.60
39483;DHT22;25682;48.438;1.482;2023-05-14T09:59:02;20.90;58.50
39483;DHT22;25682;48.438;1.482;2023-05-14T10:01:28;20.90;58.50
39483;DHT22;25682;48.438;1.482;2023-05-14T10:03:54;20.90;58.50
39483;DHT22;25682;48.438;1.482;2023-05-14T10:06:21;21.00;58.50
39483;DHT22;25682;48.438;1.482;2023-05-14T10:08:47;21.00;58.40
39483;DHT22;25682;48.438;1.482;2023-05-14T10:11:15;21.00;58.40
39483;DHT22;25682;48.438;1.482;2023-05-14T10:13:46;21.00;58.50
39483;DHT22;25682;48.438;1.482;2023-05-14T10:16:47;21.00;58.40
39483;DHT22;25682;48.438;1.482;2023-05-14T10:19:09;21.00;58.30
39483;DHT22;25682;48.438;1.482;2023-05-14T10:21:35;21.10;58.40
39483;DHT22;25682;48.438;1.482;2023-05-14T10:24:04;21.10;58.40
39483;DHT22;25682;48.438;1.482;2023-05-14T10:26:34;21.20;58.50
39483;DHT22;25682;48.438;1.482;2023-05-14T10:29:03;21.20;58.50
39483;DHT22;25682;48.438;1.482;2023-05-14T10:31:43;21.20;58.50
39483;DHT22;25682;48.438;1.482;2023-05-14T10:34:29;21.30;58.60
39483;DHT22;25682;48.438;1.482;2023-05-14T10:36:57;21.30;58.70
39483;DHT22;25682;48.438;1.482;2023-05-14T10:39:23;21.30;58.80
39483;DHT22;25682;48.438;1.482;2023-05-14T10:41:48;21.40;58.90
39483;DHT22;25682;48.438;1.482;2023-05-14T10:44:14;21.40;58.80
39483;DHT22;25682;48.438;1.482;2023-05-14T10:46:40;21.40;58.70
39483;DHT22;25682;48.438;1.482;2023-05-14T10:49:05;21.50;58.70
39483;DHT22;25682;48.438;1.482;2023-05-14T10:51:31;21.50;58.60
39483;DHT22;25682;48.438;1.482;2023-05-14T10:53:57;21.60;58.50
39483;DHT22;25682;48.438;1.482;2023-05-14T10:56:25;21.60;58.60
39483;DHT22;25682;48.438;1.482;2023-05-14T10:58:50;21.60;58.60
39483;DHT22;25682;48.438;1.482;2023-05-14T11:01:16;21.60;58.70
39483;DHT22;25682;48.438;1.482;2023-05-14T11:03:42;21.60;59.00
39483;DHT22;25682;48.438;1.482;2023-05-14T11:06:09;21.60;59.00
39483;DHT22;25682;48.438;1.482;2023-05-14T11:08:35;21.60;59.00
39483;DHT22;25682;48.438;1.482;2023-05-14T11:11:01;21.60;59.20
39483;DHT22;25682;48.438;1.482;2023-05-14T11:13:26;21.60;59.20
39483;DHT22;25682;48.438;1.482;2023-05-14T11:15:52;21.70;59.20
39483;DHT22;25682;48.438;1.482;2023-05-14T11:18:31;21.70;59.20
39483;DHT22;25682;48.438;1.482;2023-05-14T11:21:00;21.70;59.20
39483;DHT22;25682;48.438;1.482;2023-05-14T11:23:26;21.70;59.20
39483;DHT22;25682;48.438;1.482;2023-05-14T11:25:52;21.70;59.30
39483;DHT22;25682;48.438;1.482;2023-05-14T11:28:19;21.80;59.30
39483;DHT22;25682;48.438;1.482;2023-05-14T11:30:44;21.80;59.10
39483;DHT22;25682;48.438;1.482;2023-05-14T11:33:10;21.80;59.00
39483;DHT22;25682;48.438;1.482;2023-05-14T11:35:36;21.90;59.00
39483;DHT22;25682;48.438;1.482;2023-05-14T11:38:02;21.90;59.00
39483;DHT22;25682;48.438;1.482;2023-05-14T11:40:27;21.90;59.10
39483;DHT22;25682;48.438;1.482;2023-05-14T11:42:52;21.80;59.20
39483;DHT22;25682;48.438;1.482;2023-05-14T11:45:24;21.80;59.20
39483;DHT22;25682;48.438;1.482;2023-05-14T11:47:51;21.80;59.20
39483;DHT22;25682;48.438;1.482;2023-05-14T11:50:16;21.80;59.30
39483;DHT22;25682;48.438;1.482;2023-05-14T11:52:42;21.90;59.30
39483;DHT22;25682;48.438;1.482;2023-05-14T11:55:10;21.90;59.20
39483;DHT22;25682;48.438;1.482;2023-05-14T11:57:36;21.90;59.10
39483;DHT22;25682;48.438;1.482;2023-05-14T12:00:02;21.90;59.10
39483;DHT22;25682;48.438;1.482;2023-05-14T12:02:30;21.90;59.10
39483;DHT22;25682;48.438;1.482;2023-05-14T12:04:55;21.90;59.10
39483;DHT22;25682;48.438;1.482;2023-05-14T12:07:21;21.90;59.00
39483;DHT22;25682;48.438;1.482;2023-05-14T12:09:47;21.90;59.00
39483;DHT22;25682;48.438;1.482;2023-05-14T12:12:14;22.00;59.00
39483;DHT22;25682;48.438;1.482;2023-05-14T12:14:41;22.00;59.00
39483;DHT22;25682;48.438;1.482;2023-05-14T12:17:13;22.00;59.00
39483;DHT22;25682;48.438;1.482;2023-05-14T12:19:39;21.90;58.90
39483;DHT22;25682;48.438;1.482;2023-05-14T12:22:06;22.00;59.00
39483;DHT22;25682;48.438;1.482;2023-05-14T12:24:32;22.00;59.00
39483;DHT22;25682;48.438;1.482;2023-05-14T12:26:59;22.00;59.00
39483;DHT22;25682;48.438;1.482;2023-05-14T12:29:25;22.00;59.10
39483;DHT22;25682;48.438;1.482;2023-05-14T12:31:50;22.00;59.10
39483;DHT22;25682;48.438;1.482;2023-05-14T12:34:16;22.00;59.00
39483;DHT22;25682;48.438;1.482;2023-05-14T12:36:42;22.00;59.10
39483;DHT22;25682;48.438;1.482;2023-05-14T12:39:08;21.90;59.10
39483;DHT22;25682;48.438;1.482;2023-05-14T12:41:34;21.90;59.10
39483;DHT22;25682;48.438;1.482;2023-05-14T12:43:59;21.90;58.50
39483;DHT22;25682;48.438;1.482;2023-05-14T12:46:25;21.90;59.00
39483;DHT22;25682;48.438;1.482;2023-05-14T12:48:51;21.90;59.00
39483;DHT22;25682;48.438;1.482;2023-05-14T12:51:17;22.00;58.90
39483;DHT22;25682;48.438;1.482;2023-05-14T12:53:43;22.00;58.90
39483;DHT22;25682;48.438;1.482;2023-05-14T12:56:08;21.90;58.90
39483;DHT22;25682;48.438;1.482;2023-05-14T12:58:34;22.00;58.90
39483;DHT22;25682;48.438;1.482;2023-05-14T13:00:59;22.00;58.90
39483;DHT22;25682;48.438;1.482;2023-05-14T13:03:25;22.00;58.80
39483;DHT22;25682;48.438;1.482;2023-05-14T13:05:51;22.00;58.80
39483;DHT22;25682;48.438;1.482;2023-05-14T13:08:17;22.00;58.80
39483;DHT22;25682;48.438;1.482;2023-05-14T13:10:42;22.00;58.80
39483;DHT22;25682;48.438;1.482;2023-05-14T13:13:09;22.00;58.80
39483;DHT22;25682;48.438;1.482;2023-05-14T13:15:35;22.00;58.80
39483;DHT22;25682;48.438;1.482;2023-05-14T13:18:01;22.00;58.80
39483;DHT22;25682;48.438;1.482;2023-05-14T13:20:27;22.00;58.90
39483;DHT22;25682;48.438;1.482;2023-05-14T13:22:53;22.00;59.00
39483;DHT22;25682;48.438;1.482;2023-05-14T13:25:19;21.90;59.00
39483;DHT22;25682;48.438;1.482;2023-05-14T13:27:44;21.90;59.10
39483;DHT22;25682;48.438;1.482;2023-05-14T13:30:10;21.90;59.20
39483;DHT22;25682;48.438;1.482;2023-05-14T13:32:36;21.90;59.20
39483;DHT22;25682;48.438;1.482;2023-05-14T13:35:01;21.90;59.10
39483;DHT22;25682;48.438;1.482;2023-05-14T13:37:27;21.90;58.90
39483;DHT22;25682;48.438;1.482;2023-05-14T13:39:52;21.90;58.90
39483;DHT22;25682;48.438;1.482;2023-05-14T13:42:18;21.90;58.80
39483;DHT22;25682;48.438;1.482;2023-05-14T13:44:43;21.90;58.80
39483;DHT22;25682;48.438;1.482;2023-05-14T13:47:09;21.90;58.80
39483;DHT22;25682;48.438;1.482;2023-05-14T13:49:34;21.90;58.70
39483;DHT22;25682;48.438;1.482;2023-05-14T13:52:00;21.90;58.60
39483;DHT22;25682;48.438;1.482;2023-05-14T13:54:25;21.90;58.50
39483;DHT22;25682;48.438;1.482;2023-05-14T13:56:51;21.90;58.60
39483;DHT22;25682;48.438;1.482;2023-05-14T13:59:17;22.00;58.60
39483;DHT22;25682;48.438;1.482;2023-05-14T14:01:42;22.00;58.70
39483;DHT22;25682;48.438;1.482;2023-05-14T14:04:08;22.00;58.70
39483;DHT22;25682;48.438;1.482;2023-05-14T14:06:34;22.00;58.70
39483;DHT22;25682;48.438;1.482;2023-05-14T14:08:59;22.00;58.80
39483;DHT22;25682;48.438;1.482;2023-05-14T14:11:25;22.00;58.90
39483;DHT22;25682;48.438;1.482;2023-05-14T14:13:50;21.90;58.90
39483;DHT22;25682;48.438;1.482;2023-05-14T14:16:16;21.90;59.00
39483;DHT22;25682;48.438;1.482;2023-05-14T14:18:41;21.90;59.10
39483;DHT22;25682;48.438;1.482;2023-05-14T14:21:07;21.90;59.20
39483;DHT22;25682;48.438;1.482;2023-05-14T14:23:33;21.90;59.20
39483;DHT22;25682;48.438;1.482;2023-05-14T14:25:59;21.90;59.20
39483;DHT22;25682;48.438;1.482;2023-05-14T14:28:24;21.90;59.20
39483;DHT22;25682;48.438;1.482;2023-05-14T14:30:49;21.90;59.30
39483;DHT22;25682;48.438;1.482;2023-05-14T14:33:15;21.90;59.30
39483;DHT22;25682;48.438;1.482;2023-05-14T14:35:40;21.90;59.30
39483;DHT22;25682;48.438;1.482;2023-05-14T14:38:06;21.90;59.30
39483;DHT22;25682;48.438;1.482;2023-05-14T14:40:32;21.90;59.30
39483;DHT22;25682;48.438;1.482;2023-05-14T14:42:58;21.90;59.30
39483;DHT22;25682;48.438;1.482;2023-05-14T14:45:23;21.90;59.30
39483;DHT22;25682;48.438;1.482;2023-05-14T14:47:49;21.90;59.30
39483;DHT22;25682;48.438;1.482;2023-05-14T14:50:14;21.90;59.30
39483;DHT22;25682;48.438;1.482;2023-05-14T14:52:40;21.80;59.30
39483;DHT22;25682;48.438;1.482;2023-05-14T14:55:08;21.80;59.30
39483;DHT22;25682;48.438;1.482;2023-05-14T14:57:33;21.80;59.30
39483;DHT22;25682;48.438;1.482;2023-05-14T14:59:59;21.80;59.30
39483;DHT22;25682;48.438;1.482;2023-05-14T15:02:25;21.90;59.30
39483;DHT22;25682;48.438;1.482;2023-05-14T15:04:50;21.90;59.30
39483;DHT22;25682;48.438;1.482;2023-05-14T15:07:16;21.90;59.30
39483;DHT22;25682;48.438;1.482;2023-05-14T15:09:42;21.90;59.30
39483;DHT22;25682;48.438;1.482;2023-05-14T15:12:08;21.90;59.20
39483;DHT22;25682;48.438;1.482;2023-05-14T15:14:35;21.90;59.20
39483;DHT22;25682;48.438;1.482;2023-05-14T15:17:00;21.90;59.30
39483;DHT22;25682;48.438;1.482;2023-05-14T15:19:27;21.90;59.20
39483;DHT22;25682;48.438;1.482;2023-05-14T15:21:53;21.80;59.10
39483;DHT22;25682;48.438;1.482;2023-05-14T15:24:19;21.80;59.10